International Virtual Aviation Organisation

Russian Federation and Kazakhstan MCD

 

Карточка аэропорта UUYY

Внимание!
Информация на этой странице в стадии наполнения.
Если вы не увидели какой-то информации, или заметили неточность - пожалуйста сообщите нам!
Спасибо!
Команда RU-STAFF
Название аэропортаСыктывкар
Название аэропорта (англ.)Syktyvkar
Превышение341 ft. (103.9 m.)
Координаты61°38.502', 50°50.298'
Высота перехода700
Эшелон переходаQFE>760: FL40; 760>QFE>733: FL50; 733 >QFE :FL60;
Коды ответчика3130-3134, 5752-5757, 5770-5777, 6701-6717
Зона ОрВДСыктывкар РПИ (UUYY)
Данные METARUUYY 180700Z 17005MPS 5000 -SHSN BKN020CB M07/M08 Q0986 R18/490533 NOSIG RMK QFE731/0975
Проноз погоды (TAF)UUYY 180500Z 1806/1906 17005G11MPS 2100 -SHSN BKN011 BKN015CB TEMPO 1806/1809 0700 +SHSN BKN005 BKN012CB TEMPO 1809/1812 1000 SHSN BKN006 BKN012CB FM181200 23006MPS 3100 -SHSN BR BKN007 BKN015CB TEMPO 1812/1821 22012MPS
NOTAMshow/hide NOTAM
AWOS   TABLE

Информация о ВПП

ВПП Длина ВПП (м.) Покрытие Курс ВПП Частота ILS
012500Асфальтобетон6108.3
192500Асфальтобетон186111.7

Диспетчерские позиции

Позывной Наименование органа УВД Частота
UUYY_TWRСивкар-Старт124.600
UUYY_R_APPСивкар-Круг124.600



Спутниковое изображение